Time;durP1;ratioP1;P1;durP2;ratioP2;P2;SDS_P1;SDS_P2;PMS_P1;PMS_P2;Temp;Humidity;BMP_temperature;BMP_pressure;BME280_temperature;BME280_humidity;BME280_pressure;Samples;Min_cycle;Max_cycle;Signal;HPM_P1;HPM_P2
2022/08/20 00:00:29;;;;;;;16.90;14.80;;;;;;;20.96;100.00;100486.50;5001804;28;20054;-48
2022/08/20 00:02:58;;;;;;;17.63;15.77;;;;;;;21.00;100.00;100492.38;5010797;28;20506;-47
2022/08/20 00:05:32;;;;;;;18.30;16.48;;;;;;;20.95;100.00;100502.75;5002489;28;20053;-49
2022/08/20 00:07:59;;;;;;;16.13;14.48;;;;;;;20.90;100.00;100491.69;4996554;28;20057;-48
2022/08/20 00:10:27;;;;;;;16.50;14.15;;;;;;;20.89;100.00;100496.19;5004467;28;20054;-48
2022/08/20 00:12:55;;;;;;;19.67;16.17;;;;;;;20.88;100.00;100507.03;5010146;28;20046;-48
2022/08/20 00:15:27;;;;;;;18.48;16.63;;;;;;;20.85;100.00;100499.31;4994143;28;20511;-48
2022/08/20 00:17:55;;;;;;;18.08;16.27;;;;;;;20.80;100.00;100507.81;5010172;28;20064;-48
2022/08/20 00:20:25;;;;;;;18.73;16.45;;;;;;;20.73;100.00;100507.63;5000440;28;20689;-45
2022/08/20 00:22:52;;;;;;;18.65;16.75;;;;;;;20.70;100.00;100504.44;5006484;28;20050;-46
2022/08/20 00:25:19;;;;;;;19.33;17.42;;;;;;;20.72;100.00;100508.66;4992422;28;20061;-46
2022/08/20 00:27:46;;;;;;;18.90;16.67;;;;;;;20.78;100.00;100503.66;5003574;28;20062;-48
2022/08/20 00:30:14;;;;;;;18.42;14.98;;;;;;;20.81;100.00;100514.03;5003731;28;20073;-52
2022/08/20 00:32:55;;;;;;;21.98;19.35;;;;;;;20.80;100.00;100521.22;5000710;28;20050;-48
2022/08/20 00:35:24;;;;;;;23.25;19.23;;;;;;;20.68;100.00;100512.63;4990772;28;20058;-47
2022/08/20 00:37:52;;;;;;;22.35;19.77;;;;;;;20.67;100.00;100516.31;4996469;28;20050;-48
2022/08/20 00:40:28;;;;;;;21.88;19.17;;;;;;;20.67;100.00;100515.47;4991455;28;20108;-50
2022/08/20 00:42:57;;;;;;;21.77;19.63;;;;;;;20.73;100.00;100510.31;4995287;28;20047;-47
2022/08/20 00:45:27;;;;;;;20.40;17.25;;;;;;;20.77;100.00;100502.81;4990540;28;20054;-49
2022/08/20 00:47:54;;;;;;;24.30;20.23;;;;;;;20.76;100.00;100508.31;4997083;28;20145;-47
2022/08/20 00:50:26;;;;;;;22.13;19.50;;;;;;;20.70;100.00;100505.28;4988509;28;20073;-50
2022/08/20 00:52:53;;;;;;;22.23;19.90;;;;;;;20.73;100.00;100504.13;4997999;28;20599;-50
2022/08/20 00:55:22;;;;;;;18.67;16.67;;;;;;;20.74;100.00;100508.47;4977743;28;20503;-46
2022/08/20 00:57:56;;;;;;;19.73;17.15;;;;;;;20.80;100.00;100509.66;4978403;28;20050;-46
2022/08/20 01:00:36;;;;;;;19.15;16.95;;;;;;;20.84;100.00;100511.88;4977883;28;20057;-46
2022/08/20 01:03:08;;;;;;;18.65;16.67;;;;;;;20.87;100.00;100516.06;4990226;28;20141;-48
2022/08/20 01:05:38;;;;;;;18.48;16.60;;;;;;;20.92;100.00;100505.72;4997791;28;20054;-46
2022/08/20 01:08:05;;;;;;;19.88;17.90;;;;;;;20.92;100.00;100511.06;5000644;28;20051;-46
2022/08/20 01:10:36;;;;;;;20.48;18.27;;;;;;;20.91;100.00;100514.75;4984015;28;20062;-46
2022/08/20 01:13:09;;;;;;;18.70;16.83;;;;;;;20.89;100.00;100516.75;4990054;28;20574;-48
2022/08/20 01:15:39;;;;;;;21.75;17.60;;;;;;;20.83;100.00;100523.56;4977653;28;20050;-48
2022/08/20 01:18:12;;;;;;;21.20;17.38;;;;;;;20.80;100.00;100521.22;4999849;28;20050;-49
2022/08/20 01:20:43;;;;;;;20.98;18.80;;;;;;;20.67;100.00;100515.47;4997519;28;20057;-48
2022/08/20 01:23:26;;;;;;;19.90;17.63;;;;;;;20.63;100.00;100509.59;4991070;28;20049;-49
2022/08/20 01:26:02;;;;;;;19.73;17.83;;;;;;;20.65;100.00;100512.94;4981343;28;20050;-48
2022/08/20 01:28:36;;;;;;;20.77;18.77;;;;;;;20.63;100.00;100516.78;5007783;28;20060;-46
2022/08/20 01:31:06;;;;;;;19.58;17.67;;;;;;;20.60;100.00;100520.59;4992841;28;20046;-50
2022/08/20 01:33:33;;;;;;;19.52;17.42;;;;;;;20.54;100.00;100507.88;4991985;28;20453;-50
2022/08/20 01:36:01;;;;;;;19.35;17.50;;;;;;;20.57;100.00;100506.69;5005936;28;20145;-47
2022/08/20 01:38:29;;;;;;;19.27;17.02;;;;;;;20.56;100.00;100516.56;5005727;28;20051;-51
2022/08/20 01:41:25;;;;;;;21.38;18.02;;;;;;;20.56;100.00;100519.25;5002710;28;20065;-47
2022/08/20 01:43:55;;;;;;;18.35;16.45;;;;;;;20.54;100.00;100521.25;4999207;28;20080;-47
2022/08/20 01:46:29;;;;;;;18.77;16.88;;;;;;;20.56;100.00;100519.25;4991000;28;20435;-46
2022/08/20 01:48:58;;;;;;;17.63;15.65;;;;;;;20.60;100.00;100520.59;4990736;28;20049;-46
2022/08/20 01:51:28;;;;;;;20.00;17.80;;;;;;;20.61;100.00;100522.28;4981101;28;20055;-48
2022/08/20 01:53:58;;;;;;;20.85;17.35;;;;;;;20.60;100.00;100527.78;5007789;28;20137;-49
2022/08/20 01:56:29;;;;;;;16.52;14.82;;;;;;;20.60;100.00;100530.47;5000448;28;20073;-49
2022/08/20 01:58:59;;;;;;;15.55;13.95;;;;;;;20.65;100.00;100531.66;5007101;23;20076;-45
2022/08/20 02:01:33;;;;;;;15.13;13.70;;;;;;;20.70;100.00;100525.84;4986735;28;20407;-50
2022/08/20 02:04:13;;;;;;;17.08;15.43;;;;;;;20.67;100.00;100523.50;4987601;28;20069;-50
2022/08/20 02:06:48;;;;;;;16.23;14.57;;;;;;;20.62;100.00;100531.13;4988468;28;20065;-49
2022/08/20 02:09:25;;;;;;;16.15;14.57;;;;;;;20.62;100.00;100528.47;4994735;28;20057;-48
2022/08/20 02:11:53;;;;;;;15.48;13.98;;;;;;;20.61;100.00;100542.84;4999855;28;20049;-48
2022/08/20 02:14:20;;;;;;;14.13;12.73;;;;;;;20.55;100.00;100541.63;4996300;28;20046;-49
2022/08/20 02:16:48;;;;;;;12.40;11.20;;;;;;;20.45;100.00;100543.53;4982563;28;20077;-50
2022/08/20 02:19:33;;;;;;;12.60;11.32;;;;;;;20.43;100.00;100537.50;4989163;28;20439;-50
2022/08/20 02:22:05;;;;;;;10.57;9.60;;;;;;;20.37;100.00;100538.13;4988798;28;20056;-50
2022/08/20 02:24:32;;;;;;;12.25;10.05;;;;;;;20.34;100.00;100538.44;4987711;28;20050;-48
2022/08/20 02:26:59;;;;;;;9.82;8.82;;;;;;;20.39;100.00;100552.16;4982226;28;20062;-50
2022/08/20 02:29:27;;;;;;;11.07;9.27;;;;;;;20.36;100.00;100552.50;4995961;28;20046;-51
2022/08/20 02:31:54;;;;;;;9.25;7.93;;;;;;;20.33;100.00;100552.81;4997108;28;20088;-46
2022/08/20 02:34:41;;;;;;;9.85;8.40;;;;;;;20.35;100.00;100551.63;4990543;28;20544;-50
2022/08/20 02:37:08;;;;;;;8.50;7.68;;;;;;;20.38;100.00;100558.53;5005631;28;20060;-46
2022/08/20 02:39:36;;;;;;;8.40;7.65;;;;;;;20.42;100.00;100559.88;4997124;28;20438;-49
2022/08/20 02:42:03;;;;;;;9.55;8.65;;;;;;;20.43;100.00;100558.88;5004265;28;20208;-49
2022/08/20 02:44:31;;;;;;;8.77;7.97;;;;;;;20.46;100.00;100553.25;4990894;28;20058;-49
2022/08/20 02:46:59;;;;;;;9.77;8.77;;;;;;;20.46;100.00;100555.91;5003732;28;20064;-50
2022/08/20 02:49:26;;;;;;;8.63;7.53;;;;;;;20.46;100.00;100553.25;5004051;28;20061;-48
2022/08/20 02:51:53;;;;;;;10.05;9.15;;;;;;;20.47;100.00;100555.78;5011375;28;20064;-48
2022/08/20 02:54:20;;;;;;;10.60;9.52;;;;;;;20.41;100.00;100555.53;4995484;28;20056;-49
2022/08/20 02:56:47;;;;;;;9.85;8.73;;;;;;;20.38;100.00;100551.34;5002290;28;20072;-48
2022/08/20 02:59:14;;;;;;;10.88;9.77;;;;;;;20.37;100.00;100551.50;5000055;28;20058;-48
2022/08/20 03:01:47;;;;;;;11.43;10.32;;;;;;;20.37;100.00;100551.50;4996802;28;20423;-53
2022/08/20 03:04:28;;;;;;;10.18;9.23;;;;;;;20.34;100.00;100544.63;4999045;28;20084;-48
2022/08/20 03:06:56;;;;;;;10.45;9.45;;;;;;;20.38;100.00;100547.81;5004140;28;20406;-50
2022/08/20 03:09:23;;;;;;;13.32;12.07;;;;;;;20.38;100.00;100542.47;4994359;28;20066;-50
2022/08/20 03:11:51;;;;;;;12.90;11.60;;;;;;;20.37;100.00;100536.28;5006557;28;20062;-51
2022/08/20 03:14:18;;;;;;;12.60;11.48;;;;;;;20.40;100.00;100533.31;4995785;28;20054;-49
2022/08/20 03:16:45;;;;;;;10.85;9.82;;;;;;;20.38;100.00;100527.28;5011370;28;20137;-50
2022/08/20 03:19:12;;;;;;;10.63;9.63;;;;;;;20.39;100.00;100531.63;5005607;28;20073;-52
2022/08/20 03:21:39;;;;;;;11.23;10.13;;;;;;;20.39;100.00;100528.09;5009348;28;20064;-51
2022/08/20 03:24:07;;;;;;;12.30;11.10;;;;;;;20.40;100.00;100527.13;5012992;28;20409;-51
2022/08/20 03:26:34;;;;;;;12.80;11.60;;;;;;;20.44;100.00;100528.47;5010348;28;20089;-50
2022/08/20 03:29:01;;;;;;;13.57;12.18;;;;;;;20.44;100.00;100524.00;4999501;28;20068;-50
2022/08/20 03:31:28;;;;;;;14.93;13.35;;;;;;;20.42;100.00;100520.63;4997966;28;20062;-49
2022/08/20 03:33:55;;;;;;;14.95;13.45;;;;;;;20.44;100.00;100523.13;5012176;28;20053;-51
2022/08/20 03:36:24;;;;;;;13.70;12.30;;;;;;;20.43;100.00;100522.28;5013080;28;20050;-52
2022/08/20 03:38:56;;;;;;;15.30;13.90;;;;;;;20.41;100.00;100520.78;5000300;28;20058;-49
2022/08/20 03:41:24;;;;;;;16.02;14.32;;;;;;;20.41;100.00;100518.13;5007180;28;20076;-50
2022/08/20 03:43:52;;;;;;;15.95;14.35;;;;;;;20.42;100.00;100517.94;5000011;28;20518;-53
2022/08/20 03:46:19;;;;;;;15.57;14.07;;;;;;;20.44;100.00;100524.00;4997107;28;20438;-47
2022/08/20 03:48:51;;;;;;;17.52;15.80;;;;;;;20.43;100.00;100526.81;4996543;28;20065;-50
2022/08/20 03:51:28;;;;;;;16.38;14.68;;;;;;;20.45;100.00;100523.00;5010235;28;20088;-49
2022/08/20 03:53:55;;;;;;;16.65;15.05;;;;;;;20.46;100.00;100530.00;5004338;28;20501;-48
2022/08/20 03:56:22;;;;;;;16.25;14.50;;;;;;;20.48;100.00;100527.19;5000236;28;20061;-48
2022/08/20 03:58:50;;;;;;;17.88;15.50;;;;;;;20.52;100.00;100533.09;5006554;28;20081;-50
2022/08/20 04:01:17;;;;;;;18.88;16.90;;;;;;;20.51;100.00;100537.59;5009846;28;20156;-50
2022/08/20 04:04:04;;;;;;;17.42;15.52;;;;;;;20.51;100.00;100528.75;5002213;28;20053;-49
2022/08/20 04:06:38;;;;;;;19.98;17.80;;;;;;;20.50;100.00;100529.75;5004054;28;20061;-52
2022/08/20 04:09:07;;;;;;;19.42;17.08;;;;;;;20.50;100.00;100530.56;5010403;28;20050;-51
2022/08/20 04:11:38;;;;;;;20.73;18.48;;;;;;;20.47;100.00;100529.03;4994980;28;20069;-54
2022/08/20 04:14:05;;;;;;;20.27;18.00;;;;;;;20.50;100.00;100537.75;5003590;28;20050;-51
2022/08/20 04:16:33;;;;;;;20.50;16.20;;;;;;;20.54;100.00;100539.97;5000893;28;20065;-49
2022/08/20 04:19:02;;;;;;;19.38;17.27;;;;;;;20.57;100.00;100541.47;5005928;28;20066;-50
2022/08/20 04:21:33;;;;;;;18.02;15.93;;;;;;;20.55;100.00;100546.97;5011835;28;20064;-53
2022/08/20 04:24:02;;;;;;;21.85;17.77;;;;;;;20.58;100.00;100545.81;5020629;28;20349;-54
2022/08/20 04:26:30;;;;;;;16.70;15.00;;;;;;;20.57;100.00;100555.69;5018709;28;20062;-54
2022/08/20 04:28:57;;;;;;;19.48;17.42;;;;;;;20.56;100.00;100547.81;5015424;28;20637;-55
2022/08/20 04:31:31;;;;;;;19.85;17.83;;;;;;;20.53;100.00;100548.13;5013192;28;20060;-52
2022/08/20 04:34:00;;;;;;;19.33;17.33;;;;;;;20.52;100.00;100543.78;5006665;28;20053;-48
2022/08/20 04:36:28;;;;;;;15.65;14.13;;;;;;;20.53;100.00;100540.94;5002092;28;20068;-52
2022/08/20 04:38:55;;;;;;;18.90;17.00;;;;;;;20.57;100.00;100538.78;5002146;28;20153;-48
2022/08/20 04:41:22;;;;;;;19.33;17.33;;;;;;;20.59;100.00;100540.31;5007496;28;20398;-48
2022/08/20 04:43:54;;;;;;;19.92;17.23;;;;;;;20.57;100.00;100534.28;5007663;28;20068;-48
2022/08/20 04:46:27;;;;;;;18.35;16.55;;;;;;;20.57;100.00;100536.13;4996241;28;20057;-52
2022/08/20 04:48:55;;;;;;;17.90;16.10;;;;;;;20.57;100.00;100541.47;4997126;28;20057;-50
2022/08/20 04:51:23;;;;;;;19.67;17.58;;;;;;;20.58;100.00;100543.13;4992728;28;20054;-50
2022/08/20 04:53:52;;;;;;;18.17;16.38;;;;;;;20.57;100.00;100554.84;4997791;28;20087;-51
2022/08/20 04:56:22;;;;;;;19.20;17.38;;;;;;;20.60;100.00;100552.69;4989487;28;20051;-49
2022/08/20 04:58:51;;;;;;;20.33;18.25;;;;;;;20.62;100.00;100558.72;4995992;28;20278;-52
2022/08/20 05:01:19;;;;;;;21.38;19.13;;;;;;;20.63;100.00;100557.75;4992449;28;20415;-51
2022/08/20 05:03:46;;;;;;;19.95;17.83;;;;;;;20.61;100.00;100553.53;4990427;28;20053;-48
2022/08/20 05:06:15;;;;;;;20.80;18.60;;;;;;;20.61;100.00;100558.88;4993623;28;20050;-49
2022/08/20 05:08:43;;;;;;;20.30;17.58;;;;;;;20.60;100.00;100558.03;4993896;28;20055;-50
2022/08/20 05:11:11;;;;;;;21.70;19.42;;;;;;;20.54;100.00;100564.03;4994278;28;20054;-53
2022/08/20 05:13:58;;;;;;;19.20;16.75;;;;;;;20.52;100.00;100568.69;5002775;28;20125;-49
2022/08/20 05:16:25;;;;;;;22.23;20.00;;;;;;;20.47;100.00;100569.16;4996658;28;20054;-51
2022/08/20 05:18:52;;;;;;;24.60;21.85;;;;;;;20.42;100.00;100573.25;4992244;28;20065;-51
2022/08/20 05:21:20;;;;;;;23.45;19.35;;;;;;;20.43;100.00;100572.25;4985171;28;20066;-51
2022/08/20 05:23:47;;;;;;;21.98;19.65;;;;;;;20.43;100.00;100566.91;4998934;28;20050;-54
2022/08/20 05:26:15;;;;;;;23.95;17.75;;;;;;;20.46;100.00;100571.97;4994389;28;20055;-53
2022/08/20 05:28:44;;;;;;;20.33;18.25;;;;;;;20.51;100.00;100572.34;4987487;28;20530;-48
2022/08/20 05:31:25;;;;;;;23.00;20.55;;;;;;;20.41;100.00;100568.91;4996520;28;20506;-50
2022/08/20 05:34:08;;;;;;;20.25;17.50;;;;;;;20.43;100.00;100564.25;4994677;28;20054;-49
2022/08/20 05:36:45;;;;;;;19.90;17.80;;;;;;;20.51;100.00;100575.03;4991825;28;20054;-52
2022/08/20 05:39:17;;;;;;;19.75;16.45;;;;;;;20.58;100.00;100578.78;4992357;28;20085;-51
2022/08/20 05:41:44;;;;;;;19.52;17.42;;;;;;;20.66;100.00;100580.66;4988487;28;20070;-50
2022/08/20 05:44:13;;;;;;;19.10;16.95;;;;;;;20.69;100.00;100573.16;4997572;28;20112;-48
2022/08/20 05:46:43;;;;;;;21.55;18.10;;;;;;;20.70;100.00;100576.66;4989472;28;20065;-48
2022/08/20 05:49:12;;;;;;;19.08;16.98;;;;;;;20.65;100.00;100573.63;4996621;28;20427;-53
2022/08/20 05:51:40;;;;;;;20.35;17.50;;;;;;;20.68;100.00;100578.66;4985608;28;20058;-48
2022/08/20 05:54:07;;;;;;;20.73;17.98;;;;;;;20.70;100.00;100580.19;4992173;28;20177;-49
2022/08/20 05:56:34;;;;;;;24.85;19.60;;;;;;;20.72;100.00;100582.72;4985527;28;20058;-49
2022/08/20 05:59:03;;;;;;;20.58;17.27;;;;;;;20.71;100.00;100589.03;4993196;28;20061;-49
2022/08/20 06:01:32;;;;;;;19.42;17.52;;;;;;;20.73;100.00;100589.75;4991490;28;20387;-53
2022/08/20 06:06:45;;;;;;;21.30;18.73;;;;;;;20.75;100.00;100587.72;4990664;28;20160;-50
2022/08/20 06:09:15;;;;;;;21.00;18.17;;;;;;;20.72;100.00;100585.38;4987702;28;20502;-48
2022/08/20 06:11:58;;;;;;;20.85;18.60;;;;;;;20.67;100.00;100591.22;4986466;28;20054;-50
2022/08/20 06:14:25;;;;;;;23.67;18.27;;;;;;;20.70;100.00;100596.22;4992777;28;20054;-51
2022/08/20 06:16:52;;;;;;;18.15;16.35;;;;;;;20.69;100.00;100599.06;4984280;28;20068;-50
2022/08/20 06:19:25;;;;;;;21.58;19.00;;;;;;;20.64;100.00;100601.38;4991232;28;20080;-47
2022/08/20 06:21:55;;;;;;;21.20;17.88;;;;;;;20.53;100.00;100605.13;4998371;28;20128;-49
2022/08/20 06:24:23;;;;;;;16.60;14.90;;;;;;;20.53;100.00;100605.13;4993152;28;20054;-48
2022/08/20 06:26:58;;;;;;;19.80;17.70;;;;;;;20.57;100.00;100597.63;4994799;28;20061;-49
2022/08/20 06:29:26;;;;;;;24.02;18.80;;;;;;;20.57;100.00;100602.97;4996521;28;20070;-51
2022/08/20 06:31:53;;;;;;;24.95;20.40;;;;;;;20.56;100.00;100604.81;4991972;28;20523;-53
2022/08/20 06:34:22;;;;;;;23.10;18.08;;;;;;;20.54;100.00;100601.47;4990032;28;20046;-47
2022/08/20 06:36:49;;;;;;;19.23;16.73;;;;;;;20.60;100.00;100606.19;4991060;28;20160;-51
2022/08/20 06:39:16;;;;;;;20.70;15.23;;;;;;;20.63;100.00;100615.75;4995211;28;20061;-48
2022/08/20 06:41:43;;;;;;;18.45;16.35;;;;;;;20.67;100.00;100615.28;4991974;28;20059;-51
2022/08/20 06:44:11;;;;;;;18.30;16.50;;;;;;;20.71;100.00;100610.44;4996603;28;20055;-50
2022/08/20 06:46:38;;;;;;;17.23;15.02;;;;;;;20.74;100.00;100618.16;4991876;28;20294;-50
2022/08/20 06:49:06;;;;;;;18.77;16.45;;;;;;;20.77;100.00;100615.19;4995629;28;20553;-50
2022/08/20 06:51:33;;;;;;;21.02;18.73;;;;;;;20.79;100.00;100615.84;4993402;28;20078;-50
2022/08/20 06:54:01;;;;;;;17.45;15.68;;;;;;;20.77;100.00;100615.19;4991151;28;20407;-49
2022/08/20 06:56:28;;;;;;;19.92;17.77;;;;;;;20.83;100.00;100619.06;4992025;28;20073;-53
2022/08/20 06:58:55;;;;;;;18.00;16.30;;;;;;;20.84;100.00;100620.72;4995200;28;20080;-51
2022/08/20 07:01:23;;;;;;;21.15;18.95;;;;;;;20.87;100.00;100612.41;4988306;28;20053;-53
2022/08/20 07:03:50;;;;;;;21.38;17.67;;;;;;;20.87;100.00;100617.75;4990845;28;20058;-50
2022/08/20 07:06:25;;;;;;;26.13;20.10;;;;;;;20.85;100.00;100617.91;4996458;28;20072;-47
2022/08/20 07:08:54;;;;;;;20.20;18.10;;;;;;;20.83;100.00;100621.72;4994578;28;20069;-53
2022/08/20 07:11:21;;;;;;;21.33;19.13;;;;;;;20.83;100.00;100625.25;4989204;28;20661;-48
2022/08/20 07:13:55;;;;;;;21.02;18.88;;;;;;;20.84;100.00;100629.59;4990606;28;20054;-49
2022/08/20 07:16:23;;;;;;;19.23;16.88;;;;;;;20.84;100.00;100632.28;4989105;28;20414;-52
2022/08/20 07:18:50;;;;;;;20.30;17.95;;;;;;;20.85;100.00;100630.44;4984009;28;20077;-50
2022/08/20 07:21:17;;;;;;;19.88;17.85;;;;;;;20.90;100.00;100638.84;4999371;28;20073;-48
2022/08/20 07:23:47;;;;;;;23.05;20.65;;;;;;;20.91;100.00;100640.53;4997649;28;20058;-52
2022/08/20 07:26:14;;;;;;;18.52;16.58;;;;;;;20.93;100.00;100644.72;4997165;28;20055;-48
2022/08/20 07:28:42;;;;;;;20.80;18.63;;;;;;;20.94;100.00;100649.09;4998068;28;20058;-51
2022/08/20 07:33:57;;;;;;;25.13;21.10;;;;;;;20.93;100.00;100657.25;4997740;28;20054;-52
2022/08/20 07:36:26;;;;;;;22.50;20.15;;;;;;;20.85;100.00;100665.22;4985001;28;20046;-49
2022/08/20 07:38:53;;;;;;;20.85;17.33;;;;;;;20.86;100.00;100665.09;4998404;28;20064;-52
2022/08/20 07:41:23;;;;;;;25.30;22.70;;;;;;;20.88;100.00;100664.91;4988248;28;20411;-49
2022/08/20 07:43:50;;;;;;;21.55;19.15;;;;;;;20.87;100.00;100665.91;4999001;28;20089;-50
2022/08/20 07:46:20;;;;;;;23.10;20.70;;;;;;;20.85;100.00;100668.75;4993942;28;20061;-53
2022/08/20 07:48:48;;;;;;;25.92;23.33;;;;;;;20.85;100.00;100665.22;5000177;28;20070;-52
2022/08/20 07:51:18;;;;;;;27.48;24.42;;;;;;;20.72;100.00;100660.28;4995779;28;20143;-47
2022/08/20 07:53:46;;;;;;;23.73;20.17;;;;;;;20.66;100.00;100666.25;4992070;28;20065;-63
2022/08/20 07:56:20;;;;;;;20.73;17.35;;;;;;;20.69;100.00;100664.09;4996872;28;20052;-63
2022/08/20 07:58:51;;;;;;;24.77;21.17;;;;;;;20.76;100.00;100668.81;5000632;28;20061;-62
2022/08/20 08:01:21;;;;;;;27.73;23.67;;;;;;;20.77;100.00;100666.00;4992150;28;20049;-62
2022/08/20 08:03:49;;;;;;;27.38;22.40;;;;;;;20.78;100.00;100658.81;4989200;28;20058;-62
2022/08/20 08:06:19;;;;;;;26.60;23.73;;;;;;;20.71;100.00;100667.47;5008305;28;20088;-63
2022/08/20 08:09:16;;;;;;;23.27;19.38;;;;;;;20.70;100.00;100663.09;4996941;28;20060;-63
2022/08/20 08:11:48;;;;;;;25.63;21.67;;;;;;;20.79;100.00;100666.69;4985576;28;20058;-65
2022/08/20 08:14:21;;;;;;;25.55;20.90;;;;;;;20.80;100.00;100657.66;5000142;28;20100;-62
2022/08/20 08:16:49;;;;;;;29.05;24.77;;;;;;;20.82;100.00;100668.22;4990524;28;20053;-62
2022/08/20 08:19:17;;;;;;;27.00;23.35;;;;;;;20.83;100.00;100669.91;5019628;23;20049;-61
2022/08/20 08:21:44;;;;;;;28.40;24.35;;;;;;;20.84;100.00;100680.44;4998645;28;20060;-61
2022/08/20 08:24:11;;;;;;;27.50;24.35;;;;;;;20.84;100.00;100676.91;4994911;28;20165;-61
2022/08/20 08:26:48;;;;;;;25.08;21.25;;;;;;;20.80;100.00;100684.41;4988796;28;20058;-61
2022/08/20 08:29:16;;;;;;;33.53;27.02;;;;;;;20.78;100.00;100685.56;4990991;28;20055;-61
2022/08/20 08:31:43;;;;;;;28.83;24.30;;;;;;;20.73;100.00;100681.53;4989517;28;20057;-61
2022/08/20 08:34:10;;;;;;;30.17;23.83;;;;;;;20.78;100.00;100686.41;4990980;28;20054;-61
2022/08/20 08:36:38;;;;;;;30.05;23.88;;;;;;;20.85;100.00;100684.81;4982016;28;20410;-61
2022/08/20 08:39:05;;;;;;;31.33;24.60;;;;;;;20.89;100.00;100683.50;4991116;28;20418;-61
2022/08/20 08:41:36;;;;;;;27.25;23.13;;;;;;;20.93;100.00;100682.16;4987380;28;20058;-62
2022/08/20 08:44:08;;;;;;;27.20;23.10;;;;;;;20.98;100.00;100679.91;4974723;28;20061;-62
2022/08/20 08:46:39;;;;;;;29.63;24.70;;;;;;;20.93;100.00;100681.34;4982794;28;20064;-61
2022/08/20 08:49:10;;;;;;;34.97;26.02;;;;;;;20.89;100.00;100688.00;4989503;28;20068;-61
2022/08/20 08:51:49;;;;;;;30.80;25.08;;;;;;;20.87;100.00;100685.50;4946041;28;20065;-62
2022/08/20 08:54:19;;;;;;;27.25;24.27;;;;;;;20.90;100.00;100679.84;4990320;28;20062;-62
2022/08/20 08:56:48;;;;;;;30.00;26.13;;;;;;;20.94;100.00;100691.91;4989042;28;20050;-61
2022/08/20 08:59:18;;;;;;;34.97;25.73;;;;;;;20.94;100.00;100688.41;4988797;28;20050;-61
2022/08/20 09:01:49;;;;;;;28.35;23.25;;;;;;;20.96;100.00;100692.56;4989285;28;20069;-61
2022/08/20 09:04:23;;;;;;;29.05;25.98;;;;;;;20.97;100.00;100688.06;4972254;28;20051;-61
2022/08/20 09:06:53;;;;;;;30.90;24.92;;;;;;;20.98;100.00;100692.41;4987764;28;20046;-61
2022/08/20 09:09:25;;;;;;;24.75;21.13;;;;;;;21.02;100.00;100693.78;4990448;28;20089;-62
2022/08/20 09:11:55;;;;;;;31.20;24.85;;;;;;;21.04;100.00;100696.31;4967457;28;20073;-61
2022/08/20 09:14:25;;;;;;;29.52;23.85;;;;;;;21.06;100.00;100688.97;4977442;28;20137;-62
2022/08/20 09:16:53;;;;;;;27.77;24.73;;;;;;;21.15;100.00;100691.53;4988147;28;20514;-61
2022/08/20 09:19:20;;;;;;;28.30;23.20;;;;;;;21.22;100.00;100697.94;4989338;28;20057;-62
2022/08/20 09:21:47;;;;;;;30.35;25.90;;;;;;;21.21;100.00;100700.78;4983486;28;20059;-61
2022/08/20 09:24:15;;;;;;;25.35;22.52;;;;;;;21.28;100.00;100706.34;4987832;28;20519;-62
2022/08/20 09:26:42;;;;;;;28.38;25.45;;;;;;;21.26;100.00;100709.19;4971360;28;20046;-62
2022/08/20 09:29:09;;;;;;;23.65;21.08;;;;;;;21.27;100.00;100702.84;4986098;28;20057;-61
2022/08/20 09:31:36;;;;;;;30.30;24.88;;;;;;;21.34;100.00;100706.56;4986803;28;20072;-61
2022/08/20 09:34:05;;;;;;;26.05;22.05;;;;;;;21.36;100.00;100707.28;4990241;28;20060;-61
2022/08/20 09:36:32;;;;;;;26.33;22.95;;;;;;;21.38;100.00;100707.09;4976341;28;20045;-61
2022/08/20 09:39:00;;;;;;;29.73;25.25;;;;;;;21.38;100.00;100702.59;4989100;28;20392;-61
2022/08/20 09:41:29;;;;;;;30.27;24.13;;;;;;;21.39;100.00;100706.97;4987078;28;20070;-61
2022/08/20 09:43:59;;;;;;;28.95;23.35;;;;;;;21.38;100.00;100707.94;4989890;28;20046;-61
2022/08/20 09:46:26;;;;;;;29.60;26.30;;;;;;;21.42;100.00;100709.31;4980776;28;20050;-62
2022/08/20 09:48:54;;;;;;;30.35;26.90;;;;;;;21.46;100.00;100707.16;4990268;28;20410;-61
2022/08/20 09:51:21;;;;;;;33.72;28.48;;;;;;;21.48;100.00;100705.16;4983547;28;20126;-61
2022/08/20 09:53:49;;;;;;;30.13;26.92;;;;;;;21.37;100.00;100708.09;4989784;28;20064;-62
2022/08/20 09:56:16;;;;;;;31.38;26.38;;;;;;;21.35;100.00;100710.13;4987911;28;20052;-61
2022/08/20 09:58:49;;;;;;;33.53;29.88;;;;;;;21.32;100.00;100710.41;4989037;28;20685;-61
2022/08/20 10:01:18;;;;;;;36.33;29.08;;;;;;;21.21;100.00;100709.66;4970267;28;20062;-61
2022/08/20 10:03:47;;;;;;;32.17;28.55;;;;;;;21.12;100.00;100707.94;4989011;28;20542;-62
2022/08/20 10:06:18;;;;;;;32.42;28.92;;;;;;;21.06;100.00;100707.69;4988199;28;20064;-62
2022/08/20 10:08:47;;;;;;;35.83;29.13;;;;;;;21.02;100.00;100701.81;4986048;28;20065;-48
2022/08/20 10:11:15;;;;;;;27.98;24.92;;;;;;;21.11;100.00;100710.75;4988249;28;20050;-51
2022/08/20 10:13:44;;;;;;;28.75;25.65;;;;;;;21.18;100.00;100711.81;4989650;28;20058;-51
2022/08/20 10:16:11;;;;;;;29.08;25.80;;;;;;;21.23;100.00;100704.97;4988285;28;20141;-46
2022/08/20 10:18:38;;;;;;;26.13;23.27;;;;;;;21.26;100.00;100709.19;4982864;28;20061;-51
2022/08/20 10:21:10;;;;;;;26.15;23.38;;;;;;;21.31;100.00;100706.91;4988128;28;20058;-48
2022/08/20 10:23:38;;;;;;;33.67;25.42;;;;;;;21.32;100.00;100715.78;4987914;28;20054;-48
2022/08/20 10:26:07;;;;;;;31.58;25.13;;;;;;;21.28;100.00;100711.69;4987656;28;20502;-48
2022/08/20 10:28:34;;;;;;;29.08;25.23;;;;;;;21.30;100.00;100705.19;4988169;28;20052;-50
2022/08/20 10:31:05;;;;;;;25.67;21.58;;;;;;;21.39;99.91;100706.97;4987938;28;20061;-51
2022/08/20 10:33:34;;;;;;;20.85;18.65;;;;;;;21.40;99.60;100711.31;4989907;28;20050;-51
2022/08/20 10:36:10;;;;;;;22.58;20.17;;;;;;;21.40;99.04;100703.28;4984499;28;20046;-48
2022/08/20 10:38:37;;;;;;;23.48;19.95;;;;;;;21.40;98.59;100705.13;4968378;28;20536;-47
2022/08/20 10:41:05;;;;;;;18.08;16.17;;;;;;;21.49;98.75;100707.69;4985974;28;20388;-50
2022/08/20 10:43:32;;;;;;;19.52;16.60;;;;;;;21.61;98.04;100702.88;4989134;28;20133;-47
2022/08/20 10:46:00;;;;;;;21.05;17.73;;;;;;;21.70;96.01;100704.63;4986064;28;20050;-49
2022/08/20 10:48:27;;;;;;;19.33;15.63;;;;;;;21.77;94.73;100702.13;4987968;28;20060;-49
2022/08/20 10:50:54;;;;;;;20.95;15.68;;;;;;;21.83;93.39;100706.81;4987156;28;20066;-48
2022/08/20 10:53:21;;;;;;;15.30;13.63;;;;;;;21.86;93.32;100703.81;4989181;28;20046;-50
2022/08/20 10:55:48;;;;;;;16.17;14.18;;;;;;;21.92;92.30;100703.16;4988882;28;20510;-54
2022/08/20 10:58:16;;;;;;;17.08;15.30;;;;;;;21.94;90.56;100708.38;4992645;28;20515;-50
2022/08/20 11:00:44;;;;;;;15.60;13.57;;;;;;;21.88;89.91;100709.84;4990954;28;20069;-48
2022/08/20 11:03:12;;;;;;;15.05;12.27;;;;;;;21.91;89.97;100716.75;4991969;28;20054;-49
2022/08/20 11:05:39;;;;;;;13.45;10.75;;;;;;;21.90;89.03;100717.75;4986799;28;20073;-49
2022/08/20 11:08:06;;;;;;;18.88;14.05;;;;;;;21.90;89.30;100715.91;4992855;28;20050;-52
2022/08/20 11:10:34;;;;;;;19.20;14.88;;;;;;;21.84;87.88;100715.69;4990814;28;20553;-48
2022/08/20 11:13:03;;;;;;;14.45;12.40;;;;;;;21.76;87.47;100716.53;4991784;28;20090;-52
2022/08/20 11:15:32;;;;;;;19.15;15.35;;;;;;;21.77;87.52;100722.72;4990930;28;20054;-52
2022/08/20 11:17:59;;;;;;;19.30;15.27;;;;;;;21.68;87.39;100729.88;4994994;28;20080;-52